Time;durP1;ratioP1;P1;durP2;ratioP2;P2;SDS_P1;SDS_P2;PMS_P1;PMS_P2;Temp;Humidity;BMP_temperature;BMP_pressure;BME280_temperature;BME280_humidity;BME280_pressure;Samples;Min_cycle;Max_cycle;Signal;HPM_P1;HPM_P2
2023/12/22 00:00:49;;;;;;;22.90;4.45;;;6.50;99.90;;;;;;6301363;22;20485;-79
2023/12/22 00:03:15;;;;;;;17.27;4.43;;;6.60;99.90;;;;;;6302793;22;20370;-80
2023/12/22 00:05:41;;;;;;;23.55;4.03;;;6.50;99.90;;;;;;6303334;22;20015;-79
2023/12/22 00:08:06;;;;;;;21.33;4.40;;;6.40;99.90;;;;;;6300268;22;20026;-79
2023/12/22 00:10:32;;;;;;;25.20;4.60;;;6.50;99.90;;;;;;6301232;22;20018;-79
2023/12/22 00:12:58;;;;;;;17.85;3.97;;;6.40;99.90;;;;;;6302734;22;20019;-79
2023/12/22 00:15:23;;;;;;;25.13;4.15;;;6.40;99.90;;;;;;6301362;22;20015;-79
2023/12/22 00:17:49;;;;;;;23.17;4.03;;;6.30;99.90;;;;;;6301055;22;20043;-80
2023/12/22 00:20:15;;;;;;;22.60;3.88;;;6.40;99.90;;;;;;6301029;22;20023;-79
2023/12/22 00:22:40;;;;;;;16.40;3.67;;;6.30;99.90;;;;;;6303020;22;20316;-80
2023/12/22 00:25:07;;;;;;;17.55;3.63;;;6.30;99.90;;;;;;6301129;22;20011;-80
2023/12/22 00:27:33;;;;;;;21.10;3.40;;;6.40;99.90;;;;;;6302869;22;20498;-79
2023/12/22 00:29:59;;;;;;;21.10;3.72;;;6.40;99.90;;;;;;6302613;22;20053;-80
2023/12/22 00:32:25;;;;;;;27.40;5.00;;;6.30;99.90;;;;;;6303056;22;20019;-80
2023/12/22 00:34:50;;;;;;;23.73;5.78;;;6.40;99.90;;;;;;6303116;22;20072;-80
2023/12/22 00:37:16;;;;;;;26.30;4.80;;;6.30;99.90;;;;;;6300973;22;20016;-80
2023/12/22 00:39:42;;;;;;;24.48;4.15;;;6.40;99.90;;;;;;6300848;22;20023;-80
2023/12/22 00:42:08;;;;;;;28.80;4.72;;;6.30;99.90;;;;;;6302802;22;20019;-79
2023/12/22 00:44:33;;;;;;;21.40;4.10;;;6.50;99.90;;;;;;6305218;22;20050;-80
2023/12/22 00:46:59;;;;;;;22.27;3.80;;;6.40;99.90;;;;;;6304783;22;20047;-80
2023/12/22 00:49:25;;;;;;;22.00;3.08;;;6.40;99.90;;;;;;6302972;22;20069;-80
2023/12/22 00:51:50;;;;;;;23.73;4.18;;;6.40;99.90;;;;;;6304736;22;20015;-80
2023/12/22 00:54:16;;;;;;;19.02;4.15;;;6.30;99.90;;;;;;6304949;22;20018;-79
2023/12/22 00:56:42;;;;;;;14.43;3.95;;;6.30;99.90;;;;;;6303066;22;20067;-80
2023/12/22 00:59:07;;;;;;;12.15;2.67;;;6.20;99.90;;;;;;6303569;22;20023;-79
2023/12/22 01:01:33;;;;;;;18.45;3.15;;;6.20;99.90;;;;;;6303034;22;20011;-79
2023/12/22 01:03:59;;;;;;;16.27;2.45;;;6.10;99.90;;;;;;6305218;22;20015;-79
2023/12/22 01:06:24;;;;;;;16.20;3.05;;;6.10;99.90;;;;;;6303222;22;20030;-79
2023/12/22 01:08:50;;;;;;;17.23;3.05;;;6.20;99.90;;;;;;6305512;22;20051;-82
2023/12/22 01:11:17;;;;;;;18.83;3.58;;;6.10;99.90;;;;;;6305152;22;20089;-79
2023/12/22 01:13:43;;;;;;;14.05;3.45;;;6.20;99.90;;;;;;6304859;22;20015;-80
2023/12/22 01:16:09;;;;;;;21.63;4.13;;;6.20;99.90;;;;;;6304334;22;20015;-79
2023/12/22 01:18:35;;;;;;;16.02;2.80;;;6.20;99.90;;;;;;6302540;22;20022;-81
2023/12/22 01:21:00;;;;;;;18.60;3.47;;;6.10;99.90;;;;;;6304729;22;20019;-81
2023/12/22 01:23:26;;;;;;;17.92;3.60;;;6.10;99.90;;;;;;6304803;22;20019;-81
2023/12/22 01:25:52;;;;;;;24.48;3.55;;;6.10;99.90;;;;;;6302672;22;20366;-81
2023/12/22 01:28:18;;;;;;;24.08;3.60;;;6.20;99.90;;;;;;6304663;22;20385;-80
2023/12/22 01:30:43;;;;;;;15.95;4.80;;;6.20;99.90;;;;;;6304615;22;20012;-81
2023/12/22 01:33:09;;;;;;;28.65;6.65;;;6.20;99.90;;;;;;6304776;22;20011;-82
2023/12/22 01:35:35;;;;;;;21.80;4.82;;;6.20;99.90;;;;;;6304364;22;20019;-81
2023/12/22 01:38:00;;;;;;;27.70;4.07;;;6.20;99.90;;;;;;6304916;22;20012;-81
2023/12/22 01:40:26;;;;;;;19.05;3.10;;;6.20;99.90;;;;;;6302284;22;20051;-79
2023/12/22 01:42:52;;;;;;;24.83;4.07;;;6.20;99.90;;;;;;6304062;22;20023;-79
2023/12/22 01:45:17;;;;;;;29.00;4.97;;;6.20;99.90;;;;;;6304403;22;20015;-77
2023/12/22 01:47:46;;;;;;;19.90;4.88;;;6.20;99.90;;;;;;6304504;22;20011;-79
2023/12/22 01:50:14;;;;;;;25.17;4.60;;;6.10;99.90;;;;;;6302408;22;20018;-80
2023/12/22 01:52:41;;;;;;;21.92;3.03;;;6.20;99.90;;;;;;6302151;22;20451;-81
2023/12/22 01:55:10;;;;;;;15.00;3.50;;;6.00;99.90;;;;;;6304541;22;20026;-79
2023/12/22 01:57:36;;;;;;;10.93;2.40;;;6.10;99.90;;;;;;6304320;22;20011;-79
2023/12/22 02:00:03;;;;;;;17.60;3.85;;;6.10;99.90;;;;;;6304162;22;20314;-80
2023/12/22 02:02:30;;;;;;;22.60;4.07;;;6.20;99.90;;;;;;6304391;22;20015;-80
2023/12/22 02:04:57;;;;;;;26.73;4.03;;;6.20;99.90;;;;;;6304753;22;20015;-79
2023/12/22 02:07:23;;;;;;;18.98;3.88;;;6.10;99.90;;;;;;6304362;22;20366;-78
2023/12/22 02:09:49;;;;;;;18.52;3.38;;;6.20;99.90;;;;;;6302770;22;20015;-81
2023/12/22 02:12:15;;;;;;;21.45;3.38;;;6.20;99.90;;;;;;6302734;22;20722;-81
2023/12/22 02:14:40;;;;;;;18.23;3.22;;;6.20;99.90;;;;;;6304164;22;20011;-78
2023/12/22 02:17:11;;;;;;;23.92;4.03;;;6.20;99.90;;;;;;6302501;22;20030;-79
2023/12/22 02:19:45;;;;;;;28.13;3.90;;;6.20;99.90;;;;;;6304487;22;20027;-80
2023/12/22 02:22:12;;;;;;;19.60;3.65;;;6.20;99.90;;;;;;6304338;22;20058;-79
2023/12/22 02:24:41;;;;;;;21.23;4.15;;;6.10;99.90;;;;;;6302278;22;20034;-78
2023/12/22 02:27:34;;;;;;;22.90;4.13;;;6.20;99.90;;;;;;6301948;22;20019;-80
2023/12/22 02:30:07;;;;;;;22.70;5.20;;;6.20;99.90;;;;;;6301772;22;20102;-79
2023/12/22 02:32:36;;;;;;;31.52;5.63;;;6.20;99.90;;;;;;6303775;22;20015;-79
2023/12/22 02:35:08;;;;;;;39.30;5.70;;;6.30;99.90;;;;;;6301997;22;20015;-79
2023/12/22 02:37:36;;;;;;;17.90;2.97;;;6.30;99.90;;;;;;6301830;22;20058;-79
2023/12/22 02:40:02;;;;;;;16.00;2.88;;;6.30;99.90;;;;;;6303430;22;20072;-78
2023/12/22 02:42:30;;;;;;;22.27;3.05;;;6.40;99.90;;;;;;6303466;22;20015;-79
2023/12/22 02:44:59;;;;;;;26.33;5.13;;;6.30;99.90;;;;;;6275990;22;20092;-79
2023/12/22 02:47:28;;;;;;;19.73;4.03;;;6.30;99.90;;;;;;6301672;22;20015;-79
2023/12/22 02:49:54;;;;;;;17.67;3.55;;;6.30;99.90;;;;;;6303864;22;20376;-79
2023/12/22 02:52:20;;;;;;;16.90;2.72;;;6.30;99.90;;;;;;6303370;22;20088;-79
2023/12/22 02:54:47;;;;;;;16.98;3.15;;;6.40;99.90;;;;;;6303582;22;20103;-79
2023/12/22 02:57:12;;;;;;;15.05;3.42;;;6.40;99.90;;;;;;6301343;22;20029;-79
2023/12/22 02:59:38;;;;;;;11.93;2.30;;;6.40;99.90;;;;;;6303330;22;20008;-79
2023/12/22 03:02:04;;;;;;;11.27;2.67;;;6.30;99.90;;;;;;6303257;22;20019;-78
2023/12/22 03:04:30;;;;;;;10.52;3.67;;;6.30;99.90;;;;;;6303348;22;20317;-79
2023/12/22 03:06:56;;;;;;;14.65;2.85;;;6.30;99.90;;;;;;6301497;22;20023;-79
2023/12/22 03:09:22;;;;;;;10.35;2.47;;;6.30;99.90;;;;;;6303519;22;20015;-79
2023/12/22 03:11:48;;;;;;;5.40;2.13;;;6.30;99.90;;;;;;6303669;22;20023;-79
2023/12/22 03:14:14;;;;;;;9.90;2.50;;;6.40;99.90;;;;;;6301307;22;20102;-78
2023/12/22 03:16:40;;;;;;;11.15;2.58;;;6.30;99.90;;;;;;6301630;22;20168;-79
2023/12/22 03:19:09;;;;;;;12.85;2.45;;;6.40;99.90;;;;;;6303644;22;20095;-80
2023/12/22 03:21:34;;;;;;;8.27;2.50;;;6.40;99.90;;;;;;6301759;22;20026;-78
2023/12/22 03:24:00;;;;;;;13.93;2.72;;;6.30;99.90;;;;;;6275866;22;20444;-79
2023/12/22 03:26:29;;;;;;;14.27;2.60;;;6.20;99.90;;;;;;6275689;22;20332;-78
2023/12/22 03:28:54;;;;;;;16.60;2.72;;;6.30;99.90;;;;;;6303338;22;20319;-78
2023/12/22 03:31:20;;;;;;;7.90;2.05;;;6.20;99.90;;;;;;6301436;22;20129;-78
2023/12/22 03:33:46;;;;;;;13.52;2.22;;;6.20;99.90;;;;;;6303166;22;20019;-78
2023/12/22 03:36:11;;;;;;;19.20;3.10;;;6.20;99.90;;;;;;6275680;22;20022;-78
2023/12/22 03:38:37;;;;;;;9.48;2.67;;;6.10;99.90;;;;;;6303641;22;20362;-78
2023/12/22 03:41:03;;;;;;;13.40;2.03;;;6.20;99.90;;;;;;6302932;22;20047;-78
2023/12/22 03:43:31;;;;;;;8.45;1.98;;;6.10;99.90;;;;;;6275320;22;20087;-78
2023/12/22 03:45:56;;;;;;;12.02;2.03;;;6.10;99.90;;;;;;6303434;22;20035;-78
2023/12/22 03:48:22;;;;;;;12.65;3.00;;;6.10;99.90;;;;;;6303253;22;20650;-77
2023/12/22 03:50:48;;;;;;;12.00;2.10;;;6.10;99.90;;;;;;6301494;22;20063;-78
2023/12/22 03:53:13;;;;;;;16.80;2.55;;;6.10;99.90;;;;;;6301806;22;20019;-77
2023/12/22 03:55:39;;;;;;;8.80;2.03;;;6.10;99.90;;;;;;6301402;22;20023;-78
2023/12/22 03:58:07;;;;;;;10.98;3.58;;;6.10;99.90;;;;;;6301427;22;20055;-79
2023/12/22 04:00:33;;;;;;;12.15;2.20;;;6.10;99.90;;;;;;6303760;22;20050;-78
2023/12/22 04:02:59;;;;;;;11.73;2.55;;;6.00;99.90;;;;;;6303533;22;20067;-79
2023/12/22 04:05:24;;;;;;;9.98;2.05;;;6.10;99.90;;;;;;6303801;22;20015;-78
2023/12/22 04:07:50;;;;;;;14.90;2.42;;;6.10;99.90;;;;;;6277470;22;20050;-78
2023/12/22 04:10:17;;;;;;;12.13;2.40;;;6.10;99.90;;;;;;6301476;22;20015;-78
2023/12/22 04:12:43;;;;;;;20.13;3.95;;;6.10;99.90;;;;;;6303337;22;20094;-78
2023/12/22 04:15:09;;;;;;;11.75;2.40;;;6.00;99.90;;;;;;6301158;22;20015;-78
2023/12/22 04:17:35;;;;;;;17.58;2.83;;;6.10;99.90;;;;;;6301121;22;20825;-78
2023/12/22 04:20:01;;;;;;;9.35;2.08;;;6.10;99.90;;;;;;6301236;22;20043;-78
2023/12/22 04:22:26;;;;;;;13.38;2.55;;;6.00;99.90;;;;;;6302692;22;20046;-78
2023/12/22 04:24:52;;;;;;;10.07;2.17;;;6.10;99.90;;;;;;6302876;22;20019;-79
2023/12/22 04:27:18;;;;;;;8.85;2.45;;;6.10;99.90;;;;;;6303032;22;20374;-78
2023/12/22 04:29:43;;;;;;;10.13;2.13;;;6.10;99.90;;;;;;6302772;22;20692;-79
2023/12/22 04:32:09;;;;;;;13.50;3.15;;;6.00;99.90;;;;;;6302517;22;20292;-78
2023/12/22 04:34:35;;;;;;;10.70;2.25;;;6.00;99.90;;;;;;6303163;22;20019;-79
2023/12/22 04:37:00;;;;;;;9.30;2.08;;;6.10;99.90;;;;;;6302620;22;20428;-79
2023/12/22 04:39:26;;;;;;;17.33;2.63;;;6.00;99.90;;;;;;6302536;22;20086;-78
2023/12/22 04:41:52;;;;;;;18.55;2.90;;;6.00;99.90;;;;;;6301006;22;20015;-77
2023/12/22 04:44:18;;;;;;;13.95;2.60;;;6.10;99.90;;;;;;6300910;22;20469;-77
2023/12/22 04:46:43;;;;;;;18.67;3.42;;;6.00;99.90;;;;;;6302807;22;20523;-76
2023/12/22 04:49:09;;;;;;;14.95;3.25;;;6.10;99.90;;;;;;6302591;22;20022;-76
2023/12/22 04:51:35;;;;;;;18.13;4.30;;;6.20;99.90;;;;;;6302669;22;20681;-76
2023/12/22 04:54:00;;;;;;;16.13;2.90;;;6.10;99.90;;;;;;6302247;22;20101;-76
2023/12/22 04:56:26;;;;;;;16.92;3.72;;;6.10;99.90;;;;;;6301161;22;20023;-76
2023/12/22 04:58:52;;;;;;;20.65;4.85;;;6.10;99.90;;;;;;6300517;22;20077;-76
2023/12/22 05:01:19;;;;;;;22.25;3.00;;;6.10;99.90;;;;;;6302647;22;20488;-76
2023/12/22 05:03:45;;;;;;;16.80;4.05;;;6.00;99.90;;;;;;6300731;22;20015;-76
2023/12/22 05:06:10;;;;;;;15.07;3.53;;;6.10;99.90;;;;;;6302397;22;20022;-76
2023/12/22 05:08:36;;;;;;;25.35;4.85;;;6.10;99.90;;;;;;6302026;22;20011;-76
2023/12/22 05:11:02;;;;;;;14.18;2.67;;;6.20;99.90;;;;;;6302527;22;20019;-75
2023/12/22 05:13:27;;;;;;;17.15;2.95;;;6.10;99.90;;;;;;6300445;22;20481;-76
2023/12/22 05:15:53;;;;;;;21.10;3.38;;;6.20;99.90;;;;;;6302216;22;20011;-75
2023/12/22 05:18:19;;;;;;;17.45;3.58;;;6.20;99.90;;;;;;6302467;22;20026;-76
2023/12/22 05:20:45;;;;;;;29.13;5.03;;;6.30;99.90;;;;;;6302818;22;20038;-76
2023/12/22 05:23:10;;;;;;;25.13;4.38;;;6.30;99.90;;;;;;6300215;22;20401;-76
2023/12/22 05:25:36;;;;;;;19.42;4.35;;;6.40;99.90;;;;;;6302687;22;20019;-75
2023/12/22 05:28:02;;;;;;;17.92;3.47;;;6.30;99.90;;;;;;6304102;22;20395;-76
2023/12/22 05:30:27;;;;;;;12.68;2.60;;;6.20;99.90;;;;;;6304242;22;20061;-75
2023/12/22 05:32:54;;;;;;;15.05;3.55;;;6.40;99.90;;;;;;6302564;22;20693;-75
2023/12/22 05:35:20;;;;;;;19.00;3.83;;;6.40;99.90;;;;;;6302380;22;20011;-76
2023/12/22 05:37:47;;;;;;;15.73;2.60;;;6.40;99.90;;;;;;6302270;22;20019;-76
2023/12/22 05:40:13;;;;;;;7.63;2.30;;;6.40;99.90;;;;;;6304075;22;20022;-75
2023/12/22 05:42:39;;;;;;;16.30;3.45;;;6.40;99.90;;;;;;6304035;22;20459;-75
2023/12/22 05:45:06;;;;;;;18.42;4.22;;;6.40;99.90;;;;;;6302313;22;20015;-76
2023/12/22 05:47:32;;;;;;;19.90;3.25;;;6.50;99.90;;;;;;6304568;22;20086;-76
2023/12/22 05:49:59;;;;;;;12.98;2.97;;;6.50;99.90;;;;;;6304627;22;20087;-76
2023/12/22 05:52:25;;;;;;;19.75;3.60;;;6.50;99.90;;;;;;6304185;22;20026;-76
2023/12/22 05:54:50;;;;;;;22.23;3.47;;;6.50;99.90;;;;;;6305114;22;20015;-76
2023/12/22 05:57:16;;;;;;;21.80;3.33;;;6.50;99.90;;;;;;6302391;22;20026;-75
2023/12/22 05:59:42;;;;;;;21.10;3.67;;;6.50;99.90;;;;;;6304769;22;20023;-76
2023/12/22 06:02:08;;;;;;;18.63;3.45;;;6.50;99.90;;;;;;6302318;22;20398;-76
2023/12/22 06:04:34;;;;;;;17.45;3.28;;;6.60;99.90;;;;;;6302440;22;20015;-79
2023/12/22 06:07:00;;;;;;;15.68;3.00;;;6.50;99.90;;;;;;6302223;22;20431;-80
2023/12/22 06:09:26;;;;;;;21.50;3.65;;;6.60;99.90;;;;;;6304581;22;20015;-79
2023/12/22 06:11:52;;;;;;;12.00;2.60;;;6.60;99.90;;;;;;6302312;22;20091;-79
2023/12/22 06:14:17;;;;;;;21.90;3.17;;;6.60;99.90;;;;;;6302243;22;20045;-79
2023/12/22 06:16:43;;;;;;;21.45;3.63;;;6.60;99.90;;;;;;6304172;22;20011;-79
2023/12/22 06:19:10;;;;;;;16.73;3.20;;;6.60;99.90;;;;;;6302543;22;20015;-79
2023/12/22 06:21:39;;;;;;;14.07;3.08;;;6.60;99.90;;;;;;6301776;22;20431;-79
2023/12/22 06:24:05;;;;;;;14.77;3.13;;;6.60;99.90;;;;;;6304575;22;20308;-79
2023/12/22 06:26:31;;;;;;;14.00;2.95;;;6.70;99.90;;;;;;6304028;22;20094;-79
2023/12/22 06:28:57;;;;;;;19.25;3.08;;;6.70;99.90;;;;;;6302139;22;20053;-79
2023/12/22 06:31:23;;;;;;;12.30;2.83;;;6.70;99.90;;;;;;6302246;22;20023;-78
2023/12/22 06:33:49;;;;;;;13.82;3.00;;;6.70;99.90;;;;;;6302168;22;20029;-79
2023/12/22 06:36:23;;;;;;;18.02;3.22;;;6.70;99.90;;;;;;6301994;22;20030;-79
2023/12/22 06:38:50;;;;;;;20.60;4.13;;;6.70;99.90;;;;;;6301680;22;20090;-79
2023/12/22 06:41:20;;;;;;;22.00;3.33;;;6.80;99.90;;;;;;6245747;22;20066;-78
2023/12/22 06:43:46;;;;;;;16.40;3.00;;;6.80;99.90;;;;;;6273221;22;20050;-80
2023/12/22 06:46:19;;;;;;;20.23;3.05;;;6.80;99.90;;;;;;6245608;22;20680;-78
2023/12/22 06:48:45;;;;;;;22.95;3.67;;;6.70;99.90;;;;;;6272628;22;20092;-77
2023/12/22 06:51:24;;;;;;;20.45;4.30;;;6.80;99.90;;;;;;6245086;22;20023;-78
2023/12/22 06:53:50;;;;;;;16.77;3.92;;;6.80;99.90;;;;;;6245578;22;20019;-79
2023/12/22 06:56:21;;;;;;;16.85;2.50;;;6.80;99.90;;;;;;6245263;22;20019;-77
2023/12/22 06:58:48;;;;;;;16.45;3.03;;;6.80;99.90;;;;;;6272856;22;20371;-78
2023/12/22 07:01:29;;;;;;;20.13;2.78;;;6.80;99.90;;;;;;6272569;22;20023;-78
2023/12/22 07:03:55;;;;;;;17.05;3.20;;;6.80;99.90;;;;;;6272713;22;20175;-78
2023/12/22 07:06:22;;;;;;;22.17;3.25;;;6.80;99.90;;;;;;6245577;22;20074;-79
2023/12/22 07:09:19;;;;;;;16.42;2.38;;;6.80;99.90;;;;;;6245430;22;20043;-78
2023/12/22 07:11:47;;;;;;;20.20;4.40;;;6.80;99.90;;;;;;6280001;22;20351;-78
2023/12/22 07:14:13;;;;;;;18.55;2.85;;;6.90;99.90;;;;;;6253141;22;20419;-79
2023/12/22 07:16:39;;;;;;;27.13;4.03;;;6.90;99.90;;;;;;6280961;22;20011;-78
2023/12/22 07:19:05;;;;;;;18.02;2.90;;;6.90;99.90;;;;;;6279757;22;20016;-78
2023/12/22 07:21:31;;;;;;;14.30;3.05;;;7.00;99.90;;;;;;6280435;22;20019;-79
2023/12/22 07:23:58;;;;;;;17.50;3.03;;;6.90;99.90;;;;;;6253387;22;20114;-78
2023/12/22 07:26:24;;;;;;;16.85;2.95;;;6.90;99.90;;;;;;6280374;22;20416;-79
2023/12/22 07:28:50;;;;;;;17.45;3.40;;;6.90;99.90;;;;;;6247822;22;20020;-79
2023/12/22 07:31:16;;;;;;;14.85;2.50;;;7.00;99.90;;;;;;6272825;22;20008;-78
2023/12/22 07:33:42;;;;;;;18.95;4.72;;;7.00;99.90;;;;;;6273082;22;20011;-79
2023/12/22 07:36:07;;;;;;;15.15;3.47;;;7.00;99.90;;;;;;6245191;22;20028;-78
2023/12/22 07:38:33;;;;;;;19.08;3.45;;;7.00;99.90;;;;;;6272398;22;20016;-79
2023/12/22 07:40:59;;;;;;;19.10;4.53;;;7.00;99.90;;;;;;6299687;22;20093;-78
2023/12/22 07:43:25;;;;;;;19.05;3.53;;;7.00;99.90;;;;;;6303417;22;20015;-79
2023/12/22 07:45:51;;;;;;;15.25;3.40;;;7.00;99.90;;;;;;6301176;22;20443;-78
2023/12/22 07:48:19;;;;;;;18.65;3.30;;;7.00;99.90;;;;;;6302739;22;20167;-79
2023/12/22 07:50:45;;;;;;;14.88;2.95;;;7.10;99.90;;;;;;6301309;22;20015;-79
2023/12/22 07:53:11;;;;;;;16.00;3.30;;;7.10;99.90;;;;;;6303440;22;20023;-79
2023/12/22 07:55:38;;;;;;;22.98;4.07;;;7.00;99.90;;;;;;6301144;22;20355;-78
2023/12/22 07:58:05;;;;;;;19.83;3.60;;;7.00;99.90;;;;;;6302865;22;20011;-78
2023/12/22 08:00:31;;;;;;;14.80;2.65;;;7.10;99.90;;;;;;6275398;22;20102;-78
2023/12/22 08:02:56;;;;;;;19.13;2.95;;;7.00;99.90;;;;;;6300391;22;20055;-78
2023/12/22 08:05:22;;;;;;;14.55;3.20;;;7.00;99.90;;;;;;6300994;22;20021;-77
2023/12/22 08:07:48;;;;;;;19.92;3.97;;;7.00;99.90;;;;;;6303091;22;20015;-77
2023/12/22 08:10:13;;;;;;;17.98;3.20;;;7.10;99.90;;;;;;6302913;22;20674;-77
2023/12/22 08:12:39;;;;;;;15.55;3.20;;;7.10;99.90;;;;;;6303020;22;20050;-77
2023/12/22 08:15:05;;;;;;;16.23;3.75;;;7.10;99.90;;;;;;6303191;22;20007;-80
2023/12/22 08:17:31;;;;;;;12.20;2.90;;;7.00;99.90;;;;;;6302690;22;20011;-79
2023/12/22 08:19:57;;;;;;;26.67;3.22;;;7.10;99.90;;;;;;6303122;22;20106;-81
2023/12/22 08:22:23;;;;;;;20.77;3.50;;;7.00;99.90;;;;;;6301226;22;20054;-81
2023/12/22 08:24:49;;;;;;;17.35;2.55;;;7.00;99.90;;;;;;6275923;22;20026;-80
2023/12/22 08:27:15;;;;;;;16.00;3.30;;;7.00;99.90;;;;;;6301309;22;20011;-81
2023/12/22 08:29:40;;;;;;;13.07;2.50;;;7.00;99.90;;;;;;6303324;22;20035;-79
2023/12/22 08:32:06;;;;;;;16.83;4.13;;;7.00;99.90;;;;;;6302541;22;20027;-79
2023/12/22 08:34:32;;;;;;;16.67;3.88;;;7.10;99.90;;;;;;6302671;22;20015;-79
2023/12/22 08:36:58;;;;;;;18.30;2.78;;;7.10;99.90;;;;;;6302775;22;20011;-78
2023/12/22 08:39:26;;;;;;;11.70;3.25;;;7.10;99.90;;;;;;6300434;22;20443;-79
2023/12/22 08:41:53;;;;;;;7.32;2.53;;;7.10;99.90;;;;;;6300590;22;20023;-79
2023/12/22 08:44:19;;;;;;;10.75;2.42;;;7.00;99.90;;;;;;6274608;22;20019;-79
2023/12/22 08:46:44;;;;;;;13.32;2.58;;;7.00;99.90;;;;;;6302117;22;20022;-79
2023/12/22 08:49:10;;;;;;;12.77;2.40;;;7.00;99.90;;;;;;6302643;22;20015;-79
2023/12/22 08:51:36;;;;;;;9.48;3.20;;;7.00;99.90;;;;;;6302859;22;20042;-78
2023/12/22 08:54:04;;;;;;;19.25;3.10;;;7.00;99.90;;;;;;6302360;22;20090;-79
2023/12/22 08:56:29;;;;;;;7.28;1.83;;;7.00;99.90;;;;;;6275161;22;20344;-78
2023/12/22 08:58:58;;;;;;;7.72;1.85;;;7.00;99.90;;;;;;6302951;22;20058;-79
2023/12/22 09:01:25;;;;;;;5.95;1.85;;;7.00;99.90;;;;;;6301246;22;20019;-79
2023/12/22 09:03:52;;;;;;;9.65;2.33;;;7.00;99.90;;;;;;6303177;22;20034;-79
2023/12/22 09:06:22;;;;;;;15.18;3.35;;;7.00;99.90;;;;;;6277386;22;20019;-79
2023/12/22 09:08:49;;;;;;;6.03;1.92;;;7.10;99.90;;;;;;6303015;22;20090;-78
2023/12/22 09:11:19;;;;;;;8.32;2.22;;;7.00;99.90;;;;;;6302878;22;20046;-78
2023/12/22 09:13:45;;;;;;;8.20;2.10;;;7.10;99.90;;;;;;6304617;22;20019;-79
2023/12/22 09:16:14;;;;;;;9.73;2.22;;;7.10;99.90;;;;;;6304218;22;20320;-78
2023/12/22 09:18:42;;;;;;;6.20;2.08;;;7.10;99.90;;;;;;6302617;22;20424;-79
2023/12/22 09:21:07;;;;;;;4.80;1.30;;;7.20;99.90;;;;;;6304764;22;20053;-79
2023/12/22 09:23:33;;;;;;;7.25;1.75;;;7.20;99.90;;;;;;6304610;22;20016;-79
2023/12/22 09:25:59;;;;;;;5.63;1.77;;;7.20;99.90;;;;;;6304438;22;20015;-79
2023/12/22 09:28:25;;;;;;;12.95;1.85;;;7.30;99.90;;;;;;6303222;22;20049;-80
2023/12/22 09:30:51;;;;;;;7.72;2.00;;;7.40;99.90;;;;;;6302579;22;20451;-80
2023/12/22 09:33:16;;;;;;;4.70;1.65;;;7.50;99.90;;;;;;6302804;22;20015;-81
2023/12/22 09:35:42;;;;;;;7.40;1.90;;;7.50;99.90;;;;;;6304946;22;20086;-80
2023/12/22 09:38:09;;;;;;;9.18;2.90;;;7.50;99.90;;;;;;6276995;22;20022;-80
2023/12/22 09:40:36;;;;;;;7.70;1.80;;;7.50;99.90;;;;;;6304531;22;20023;-80
2023/12/22 09:43:03;;;;;;;4.72;1.50;;;7.60;99.90;;;;;;6302721;22;20016;-80
2023/12/22 09:45:30;;;;;;;7.32;1.85;;;7.60;99.90;;;;;;6304559;22;20316;-80
2023/12/22 09:47:58;;;;;;;17.98;3.47;;;7.70;99.90;;;;;;6305076;22;20371;-80
2023/12/22 09:50:25;;;;;;;8.98;1.98;;;7.70;99.90;;;;;;6302757;22;20019;-80
2023/12/22 09:52:51;;;;;;;9.27;1.92;;;7.70;99.90;;;;;;6306287;22;20011;-80
2023/12/22 09:55:18;;;;;;;7.63;2.00;;;7.70;99.90;;;;;;6304944;22;20324;-80
2023/12/22 09:57:45;;;;;;;4.18;2.20;;;7.70;99.90;;;;;;6304238;22;20436;-80
2023/12/22 10:00:12;;;;;;;7.65;2.33;;;7.70;99.90;;;;;;6278966;22;20018;-80
2023/12/22 10:02:39;;;;;;;11.27;2.90;;;7.70;99.90;;;;;;6305275;22;20448;-80
2023/12/22 10:05:05;;;;;;;5.30;1.42;;;7.70;99.90;;;;;;6302775;22;20015;-81
2023/12/22 10:07:33;;;;;;;8.13;1.70;;;7.80;99.90;;;;;;6302781;22;20015;-81
2023/12/22 10:10:00;;;;;;;10.68;2.08;;;7.70;99.90;;;;;;6302481;22;20018;-79
2023/12/22 10:12:30;;;;;;;9.85;2.58;;;7.70;99.90;;;;;;6302195;22;20030;-80
2023/12/22 10:14:57;;;;;;;4.97;1.75;;;7.70;99.90;;;;;;6301606;22;20095;-80
2023/12/22 10:17:23;;;;;;;9.82;2.45;;;7.60;99.90;;;;;;6302048;22;20019;-80
2023/12/22 10:19:48;;;;;;;9.93;2.83;;;7.60;99.90;;;;;;6303953;22;20011;-80
2023/12/22 10:22:14;;;;;;;10.77;2.40;;;7.60;99.90;;;;;;6301625;22;20020;-80
2023/12/22 10:24:47;;;;;;;12.65;2.40;;;7.60;99.90;;;;;;6303774;22;20076;-80
2023/12/22 10:27:13;;;;;;;;;;;7.50;99.90;;;;;;6304134;22;20019;-80
2023/12/22 10:29:42;;;;;;;9.32;2.30;;;7.50;99.90;;;;;;6303954;22;19948;-80
2023/12/22 10:32:11;;;;;;;10.38;2.38;;;7.50;99.90;;;;;;6303972;22;20348;-80
2023/12/22 10:34:37;;;;;;;8.88;1.80;;;7.50;99.90;;;;;;6301977;22;20077;-80
2023/12/22 10:37:03;;;;;;;11.75;2.55;;;7.50;99.90;;;;;;6302039;22;20347;-80
2023/12/22 10:39:31;;;;;;;10.45;2.28;;;7.50;99.90;;;;;;6301682;22;20073;-80
2023/12/22 10:42:00;;;;;;;9.77;2.70;;;7.50;99.90;;;;;;6301698;22;20262;-80
2023/12/22 10:44:29;;;;;;;10.38;2.35;;;7.50;99.90;;;;;;6303931;22;20011;-80
2023/12/22 10:46:55;;;;;;;12.98;3.05;;;7.50;99.90;;;;;;6302207;22;20046;-80
2023/12/22 10:49:22;;;;;;;14.30;2.50;;;7.50;99.90;;;;;;6303715;22;20071;-80
2023/12/22 10:51:49;;;;;;;11.98;2.08;;;7.50;99.90;;;;;;6304035;22;20016;-80
2023/12/22 10:54:15;;;;;;;7.65;2.05;;;7.40;99.90;;;;;;6302548;22;20026;-80
2023/12/22 10:56:41;;;;;;;13.32;2.35;;;7.50;99.90;;;;;;6303453;22;20015;-79
2023/12/22 10:59:08;;;;;;;9.93;2.60;;;7.50;99.90;;;;;;6276326;22;20019;-80
2023/12/22 11:01:38;;;;;;;11.85;2.33;;;7.50;99.90;;;;;;6303666;22;20047;-79
2023/12/22 11:04:07;;;;;;;7.50;2.33;;;7.50;99.90;;;;;;6304129;22;20011;-80
2023/12/22 11:06:37;;;;;;;8.63;2.53;;;7.40;99.90;;;;;;6301896;22;20530;-81
2023/12/22 11:09:10;;;;;;;9.65;2.30;;;7.40;99.90;;;;;;6301740;22;20019;-80
2023/12/22 11:11:37;;;;;;;;;;;7.50;99.90;;;;;;6302321;22;20023;-81
2023/12/22 11:14:03;;;;;;;8.50;1.85;;;7.50;99.90;;;;;;6301818;22;20315;-79
2023/12/22 11:16:30;;;;;;;5.68;1.50;;;7.50;99.90;;;;;;6301844;22;20015;-80
2023/12/22 11:18:56;;;;;;;6.28;1.75;;;7.40;99.90;;;;;;6303642;22;20007;-80
2023/12/22 11:21:23;;;;;;;5.85;2.63;;;7.50;99.90;;;;;;6303859;22;20068;-80
2023/12/22 11:23:53;;;;;;;11.68;2.13;;;7.60;99.90;;;;;;6301254;22;20030;-80
2023/12/22 11:26:20;;;;;;;5.10;1.70;;;7.60;99.90;;;;;;6303659;22;20309;-76
2023/12/22 11:28:49;;;;;;;3.88;1.40;;;7.80;99.90;;;;;;6301609;22;20026;-79
2023/12/22 11:31:18;;;;;;;2.88;1.40;;;7.80;99.90;;;;;;6301327;22;20301;-78
2023/12/22 11:33:49;;;;;;;4.05;1.30;;;7.80;99.90;;;;;;6301377;22;20609;-78
2023/12/22 11:36:16;;;;;;;5.72;1.58;;;7.80;99.90;;;;;;6301399;22;20043;-77
2023/12/22 11:38:44;;;;;;;3.53;1.10;;;7.80;99.90;;;;;;6301270;22;20023;-78
2023/12/22 11:41:15;;;;;;;4.40;1.40;;;7.90;99.90;;;;;;6302685;22;20395;-78
2023/12/22 11:43:43;;;;;;;5.75;1.40;;;8.00;99.90;;;;;;6303443;22;20046;-77
2023/12/22 11:46:09;;;;;;;10.60;1.67;;;7.90;99.90;;;;;;6301424;22;20049;-79
2023/12/22 11:48:35;;;;;;;4.78;1.08;;;7.90;99.90;;;;;;6301192;22;20451;-78
2023/12/22 11:51:01;;;;;;;3.95;1.52;;;8.00;99.90;;;;;;6301191;22;20037;-78
2023/12/22 11:53:32;;;;;;;5.90;2.70;;;7.90;99.90;;;;;;6302820;22;20022;-78
2023/12/22 11:56:05;;;;;;;10.90;2.37;;;8.00;99.90;;;;;;6302641;22;20015;-77
2023/12/22 11:58:52;;;;;;;;;;;8.00;99.90;;;;;;6300669;22;20022;-78
2023/12/22 12:01:19;;;;;;;7.40;3.50;;;8.00;99.90;;;;;;6274497;22;19941;-77
2023/12/22 12:03:53;;;;;;;14.07;6.75;;;7.90;99.90;;;;;;6302604;22;20023;-78
2023/12/22 12:06:25;;;;;;;7.40;2.60;;;8.00;99.90;;;;;;6300575;22;20041;-78
2023/12/22 12:08:54;;;;;;;9.97;4.43;;;8.00;99.90;;;;;;6300102;22;20077;-78
2023/12/22 12:11:21;;;;;;;7.63;4.20;;;8.00;99.90;;;;;;6302219;22;20049;-78
2023/12/22 12:13:47;;;;;;;8.60;3.53;;;8.10;99.90;;;;;;6302898;22;20027;-78
2023/12/22 12:16:14;;;;;;;11.43;5.22;;;8.10;99.90;;;;;;6300797;22;20066;-82
2023/12/22 12:18:42;;;;;;;7.70;3.90;;;8.10;99.90;;;;;;6300819;22;20542;-80
2023/12/22 12:21:09;;;;;;;9.20;5.55;;;8.00;99.90;;;;;;6300966;22;20019;-79
2023/12/22 12:23:35;;;;;;;5.65;3.60;;;7.90;99.90;;;;;;6274905;22;20084;-77
2023/12/22 12:26:01;;;;;;;12.18;6.40;;;7.80;99.90;;;;;;6302715;22;20019;-78
2023/12/22 12:28:29;;;;;;;9.18;2.97;;;7.80;99.90;;;;;;6275239;22;20030;-79
2023/12/22 12:31:04;;;;;;;12.90;7.60;;;7.80;99.90;;;;;;6300950;22;20054;-78
2023/12/22 12:33:30;;;;;;;21.75;8.10;;;7.70;99.90;;;;;;6301211;22;20022;-80
2023/12/22 12:36:04;;;;;;;7.05;2.72;;;7.80;99.90;;;;;;6302250;22;20012;-78
2023/12/22 12:38:32;;;;;;;15.68;7.03;;;7.80;99.90;;;;;;6277314;22;20339;-78
2023/12/22 12:40:58;;;;;;;10.90;5.13;;;7.80;99.90;;;;;;6303277;22;20019;-79
2023/12/22 12:43:25;;;;;;;12.60;6.40;;;7.80;99.90;;;;;;6305080;22;20132;-78
2023/12/22 12:45:52;;;;;;;3.38;2.03;;;7.70;99.90;;;;;;6303278;22;20104;-78
2023/12/22 12:48:18;;;;;;;5.88;1.50;;;7.80;99.90;;;;;;6304860;22;20376;-78